createdAt,value
2018-07-08T00:02:56.494Z,101578.55
2018-07-08T00:07:59.686Z,101579.05
2018-07-08T00:13:02.892Z,101576.92
2018-07-08T00:18:06.106Z,101568.91
2018-07-08T00:23:09.241Z,101582.42
2018-07-08T00:28:12.376Z,101577.80
2018-07-08T00:33:15.520Z,101580.41
2018-07-08T00:38:19.278Z,101579.41
2018-07-08T00:43:22.384Z,101582.56
2018-07-08T00:48:25.531Z,101584.56
2018-07-08T00:53:28.731Z,101579.80
2018-07-08T00:58:32.707Z,101581.74
2018-07-08T01:03:35.895Z,101580.48
2018-07-08T01:08:39.129Z,101576.51
2018-07-08T01:13:42.170Z,101586.92
2018-07-08T01:18:45.318Z,101590.38
2018-07-08T01:23:48.397Z,101593.13
2018-07-08T01:28:51.482Z,101589.72
2018-07-08T01:33:54.645Z,101597.38
2018-07-08T01:38:57.808Z,101599.27
2018-07-08T01:44:00.957Z,101606.29
2018-07-08T01:49:04.244Z,101613.73
2018-07-08T01:54:07.408Z,101610.40
2018-07-08T01:59:10.862Z,101606.94
2018-07-08T02:04:14.051Z,101609.81
2018-07-08T02:09:17.273Z,101608.91
2018-07-08T02:14:21.471Z,101602.23
2018-07-08T02:19:24.851Z,101613.75
2018-07-08T02:24:28.864Z,101618.81
2018-07-08T02:29:32.715Z,101613.13
2018-07-08T02:34:35.956Z,101617.82
2018-07-08T02:39:39.102Z,101620.17
2018-07-08T02:44:42.576Z,101616.84
2018-07-08T02:49:46.120Z,101622.23
2018-07-08T02:54:49.222Z,101613.63
2018-07-08T02:59:52.334Z,101603.52
2018-07-08T03:04:55.481Z,101609.73
2018-07-08T03:09:58.670Z,101611.41
2018-07-08T03:15:01.838Z,101605.95
2018-07-08T03:20:05.005Z,101603.55
2018-07-08T03:25:08.093Z,101606.18
2018-07-08T03:30:12.056Z,101600.34
2018-07-08T03:35:15.163Z,101605.00
2018-07-08T03:40:18.238Z,101615.09
2018-07-08T03:45:21.356Z,101610.67
2018-07-08T03:50:24.498Z,101614.98
2018-07-08T03:55:27.944Z,101614.85
2018-07-08T04:00:31.112Z,101620.09
2018-07-08T04:05:34.889Z,101619.78
2018-07-08T04:10:37.999Z,101625.02
2018-07-08T04:15:41.206Z,101634.13
2018-07-08T04:20:44.339Z,101631.05
2018-07-08T04:25:47.466Z,101631.56
2018-07-08T04:30:50.615Z,101637.38
2018-07-08T04:35:53.754Z,101635.27
2018-07-08T04:40:56.905Z,101640.14
2018-07-08T04:46:00.152Z,101643.52
2018-07-08T04:51:03.501Z,101646.68
2018-07-08T04:56:06.810Z,101650.86
2018-07-08T05:01:09.952Z,101653.95
2018-07-08T05:06:13.161Z,101651.03
2018-07-08T05:11:16.324Z,101646.41
2018-07-08T05:16:19.614Z,101650.00
2018-07-08T05:21:22.835Z,101641.73
2018-07-08T05:26:26.010Z,101636.25
2018-07-08T05:31:29.264Z,101649.14
2018-07-08T05:36:33.512Z,101651.31
2018-07-08T05:41:37.227Z,101656.98
2018-07-08T05:46:40.443Z,101663.05
2018-07-08T05:51:43.588Z,101666.48
2018-07-08T05:56:46.722Z,101662.19
2018-07-08T06:01:49.911Z,101668.44
2018-07-08T06:06:53.032Z,101667.77
2018-07-08T06:11:56.192Z,101674.77
2018-07-08T06:16:59.531Z,101676.80
2018-07-08T06:22:02.644Z,101677.61
2018-07-08T06:27:05.833Z,101681.36
2018-07-08T06:32:08.934Z,101676.12
2018-07-08T06:37:12.038Z,101673.38
2018-07-08T06:42:15.501Z,101672.94
2018-07-08T06:47:18.758Z,101668.45
2018-07-08T06:52:22.046Z,101676.08
2018-07-08T06:57:25.262Z,101688.03
2018-07-08T07:02:28.473Z,101682.48
2018-07-08T07:07:31.627Z,101692.93
2018-07-08T07:12:34.743Z,101683.23
2018-07-08T07:17:37.939Z,101687.49
2018-07-08T07:22:41.042Z,101689.97
2018-07-08T07:27:44.193Z,101690.83
2018-07-08T07:32:47.316Z,101695.63
2018-07-08T07:37:50.510Z,101694.72
2018-07-08T07:42:53.664Z,101690.78
2018-07-08T07:47:58.454Z,101690.45
2018-07-08T07:53:01.605Z,101683.75
2018-07-08T07:58:04.778Z,101697.80
2018-07-08T08:03:07.976Z,101694.53
2018-07-08T08:08:11.159Z,101695.70
2018-07-08T08:13:14.277Z,101698.08
2018-07-08T08:18:17.403Z,101699.95
2018-07-08T08:23:20.573Z,101706.30
2018-07-08T08:28:23.707Z,101711.05
2018-07-08T08:33:27.863Z,101713.45
2018-07-08T08:38:31.135Z,101702.95
2018-07-08T08:43:34.350Z,101711.34
2018-07-08T08:48:38.535Z,101705.45
2018-07-08T08:53:41.594Z,101708.59
2018-07-08T08:58:44.751Z,101714.91
2018-07-08T09:03:47.938Z,101719.85
2018-07-08T09:08:51.040Z,101708.52
2018-07-08T09:13:54.786Z,101702.05
2018-07-08T09:18:57.994Z,101705.05
2018-07-08T09:24:01.323Z,101701.66
2018-07-08T09:29:04.506Z,101699.39
2018-07-08T09:34:07.660Z,101704.52
2018-07-08T09:39:10.890Z,101699.86
2018-07-08T09:44:13.912Z,101698.39
2018-07-08T09:49:17.076Z,101704.94
2018-07-08T09:54:20.209Z,101711.84
2018-07-08T10:05:11.213Z,101713.58
2018-07-08T10:10:14.342Z,101709.28
2018-07-08T10:15:17.619Z,101702.37
2018-07-08T10:20:20.766Z,101705.53
2018-07-08T10:25:23.977Z,101700.28
2018-07-08T10:30:27.212Z,101705.38
2018-07-08T10:35:41.706Z,101708.82
2018-07-08T10:40:44.941Z,101690.02
2018-07-08T10:45:48.066Z,101699.52
2018-07-08T10:50:51.224Z,101695.55
2018-07-08T10:55:54.537Z,101687.83
2018-07-08T11:00:58.443Z,101681.42
2018-07-08T11:06:01.838Z,101690.95
2018-07-08T11:11:05.376Z,101682.67
2018-07-08T11:16:08.605Z,101683.75
2018-07-08T11:21:11.835Z,101666.38
2018-07-08T11:26:14.949Z,101662.24
2018-07-08T11:31:18.113Z,101664.80
2018-07-08T11:36:21.295Z,101664.89
2018-07-08T11:41:24.414Z,101653.28
2018-07-08T11:46:27.682Z,101650.22
2018-07-08T11:51:30.830Z,101648.30
2018-07-08T11:56:34.036Z,101653.52
2018-07-08T12:01:37.206Z,101647.69
2018-07-08T12:06:40.295Z,101648.92
2018-07-08T12:11:43.492Z,101645.11
2018-07-08T12:16:46.690Z,101653.05
2018-07-08T12:21:49.820Z,101645.01
2018-07-08T12:26:52.973Z,101642.72
2018-07-08T12:31:56.072Z,101644.45
2018-07-08T12:36:59.289Z,101639.63
2018-07-08T12:42:02.554Z,101639.91
2018-07-08T12:47:05.705Z,101640.25
2018-07-08T12:52:08.809Z,101637.63
2018-07-08T12:57:11.964Z,101630.37
2018-07-08T13:02:15.060Z,101630.52
2018-07-08T13:07:18.206Z,101642.59
2018-07-08T13:12:21.374Z,101643.31
2018-07-08T13:17:25.601Z,101637.78
2018-07-08T13:22:28.969Z,101637.38
2018-07-08T13:27:32.306Z,101636.31
2018-07-08T13:32:35.560Z,101634.13
2018-07-08T13:37:38.736Z,101635.02
2018-07-08T13:42:41.844Z,101636.42
2018-07-08T13:47:45.011Z,101628.05
2018-07-08T13:52:48.673Z,101626.87
2018-07-08T13:57:51.839Z,101618.48
2018-07-08T14:02:55.108Z,101617.96
2018-07-08T14:08:00.097Z,101621.23
2018-07-08T14:13:03.380Z,101603.55
2018-07-08T14:18:06.570Z,101611.41
2018-07-08T14:23:09.757Z,101596.23
2018-07-08T14:28:13.569Z,101608.09
2018-07-08T14:33:17.161Z,101609.48
2018-07-08T14:38:20.383Z,101588.22
2018-07-08T14:43:23.520Z,101589.86
2018-07-08T14:48:28.063Z,101575.64
2018-07-08T14:53:32.472Z,101570.29
2018-07-08T14:58:35.863Z,101568.10
2018-07-08T15:03:39.213Z,101565.66
2018-07-08T15:08:42.472Z,101565.61
2018-07-08T15:13:45.637Z,101559.03
2018-07-08T15:18:49.563Z,101558.63
2018-07-08T15:23:53.272Z,101552.89
2018-07-08T15:28:56.585Z,101553.17
2018-07-08T15:33:59.970Z,101545.06
2018-07-08T15:39:04.562Z,101548.46
2018-07-08T15:44:07.766Z,101543.13
2018-07-08T15:49:12.071Z,101544.42
2018-07-08T15:54:15.294Z,101531.91
2018-07-08T15:59:18.906Z,101537.67
2018-07-08T16:04:22.107Z,101522.61
2018-07-08T16:09:25.284Z,101529.93
2018-07-08T16:14:28.674Z,101527.73
2018-07-08T16:19:31.951Z,101528.30
2018-07-08T16:24:35.214Z,101525.23
2018-07-08T16:29:38.434Z,101528.13
2018-07-08T16:34:41.921Z,101528.25
2018-07-08T16:39:45.141Z,101530.23
2018-07-08T16:44:48.323Z,101523.83
2018-07-08T16:49:51.539Z,101525.45
2018-07-08T16:54:54.759Z,101520.80
2018-07-08T16:59:58.127Z,101521.96
2018-07-08T17:05:02.149Z,101522.73
2018-07-08T17:10:05.624Z,101522.63
2018-07-08T17:15:08.927Z,101518.60
2018-07-08T17:20:12.103Z,101513.53
2018-07-08T17:25:15.285Z,101509.44
2018-07-08T17:30:18.403Z,101503.84
2018-07-08T17:35:22.116Z,101506.85
2018-07-08T17:40:25.330Z,101498.97
2018-07-08T17:45:28.659Z,101505.77
2018-07-08T17:50:31.935Z,101511.75
2018-07-08T17:55:35.140Z,101514.34
2018-07-08T18:00:38.312Z,101518.18
2018-07-08T18:05:45.505Z,101514.72
2018-07-08T18:10:49.327Z,101514.93
2018-07-08T18:15:52.790Z,101516.30
2018-07-08T18:20:56.111Z,101516.16
2018-07-08T18:25:59.598Z,101519.30
2018-07-08T18:31:02.917Z,101523.61
2018-07-08T18:36:06.439Z,101517.36
2018-07-08T18:41:09.682Z,101527.47
2018-07-08T18:46:13.006Z,101520.39
2018-07-08T18:51:16.693Z,101528.87
2018-07-08T18:56:21.149Z,101528.15
2018-07-08T19:01:24.343Z,101530.44
2018-07-08T19:06:28.117Z,101531.80
2018-07-08T19:11:34.016Z,101535.36
2018-07-08T19:16:38.859Z,101535.72
2018-07-08T19:21:50.174Z,101534.57
2018-07-08T19:26:57.763Z,101544.10
2018-07-08T19:32:02.618Z,101548.48
2018-07-08T19:37:06.764Z,101554.13
2018-07-08T19:42:11.259Z,101555.20
2018-07-08T19:47:14.447Z,101568.17
2018-07-08T19:52:18.225Z,101557.02
2018-07-08T19:57:22.177Z,101564.86
2018-07-08T20:02:25.789Z,101563.92
2018-07-08T20:07:30.924Z,101569.92
2018-07-08T20:12:34.304Z,101571.63
2018-07-08T20:17:40.694Z,101580.78
2018-07-08T20:22:45.225Z,101579.36
2018-07-08T20:27:49.130Z,101571.08
2018-07-08T20:32:53.176Z,101581.92
2018-07-08T20:37:57.984Z,101583.72
2018-07-08T20:43:01.611Z,101588.88
2018-07-08T20:48:05.186Z,101589.81
2018-07-08T20:53:08.526Z,101585.61
2018-07-08T20:58:12.352Z,101590.09
2018-07-08T21:03:16.865Z,101589.64
2018-07-08T21:08:20.654Z,101594.84
2018-07-08T21:13:23.869Z,101596.02
2018-07-08T21:18:27.302Z,101582.80
2018-07-08T21:23:32.532Z,101592.05
2018-07-08T21:28:35.794Z,101587.36
2018-07-08T21:33:38.983Z,101591.75
2018-07-08T21:38:45.015Z,101591.80
2018-07-08T21:43:48.151Z,101597.32
